| time (UTC) | temp F | wind direction | speed MPH | gust MPH | rain 1hr in | rain 24hr in | rain mn in | humidity % | barometer mb |
| 20260904124552 | 80 | 0 | 0.0 | 0.0 | 0.00 | 0.00 | 0.00 | 84 | 1016.3 |
| 20260904123054 | 78 | 0 | 0.0 | 0.0 | 0.00 | 0.00 | 0.00 | 87 | 1016.2 |
| 20260904121552 | 77 | 0 | 0.0 | 0.0 | 0.00 | 0.00 | 0.00 | 88 | 1016.2 |
| 20260904120055 | 76 | 0 | 0.0 | 0.0 | 0.00 | 0.00 | 0.00 | 89 | 1016.0 |
| 20260904114549 | 76 | 0 | 0.0 | 0.0 | 0.00 | 0.00 | 0.00 | 89 | 1015.8 |
| 20260904113048 | 76 | 0 | 0.0 | 0.0 | 0.00 | 0.00 | 0.00 | 88 | 1015.7 |
| 20260904111549 | 76 | 0 | 0.0 | 0.0 | 0.00 | 0.00 | 0.00 | 88 | 1015.7 |
| 20260904110059 | 76 | 0 | 0.0 | 0.0 | 0.00 | 0.00 | 0.00 | 88 | 1015.5 |
| 20260904104554 | 77 | 0 | 0.0 | 0.0 | 0.00 | 0.00 | 0.00 | 88 | 1015.4 |
| 20260904103049 | 77 | 0 | 0.0 | 0.0 | 0.00 | 0.00 | 0.00 | 88 | 1015.2 |
| 20260904101548 | 77 | 0 | 0.0 | 0.0 | 0.00 | 0.00 | 0.00 | 87 | 1015.3 |
| 20260904100104 | 77 | 0 | 0.0 | 0.0 | 0.00 | 0.00 | 0.00 | 87 | 1015.3 |
| 20260904094600 | 77 | 0 | 0.0 | 0.0 | 0.00 | 0.00 | 0.00 | 87 | 1015.2 |
| 20260904093049 | 77 | 0 | 0.0 | 0.0 | 0.00 | 0.00 | 0.00 | 86 | 1015.2 |
| 20260904091555 | 77 | 0 | 0.0 | 0.0 | 0.00 | 0.00 | 0.00 | 86 | 1015.0 |
| 20260904090104 | 78 | 0 | 0.0 | 0.0 | 0.00 | 0.00 | 0.00 | 86 | 1014.9 |
| 20260904084602 | 78 | 0 | 0.0 | 0.0 | 0.00 | 0.00 | 0.00 | 85 | 1014.7 |
| 20260904083142 | 78 | 0 | 0.0 | 0.0 | 0.00 | 0.00 | 0.00 | 85 | 1014.6 |
| 20260904081549 | 78 | 0 | 0.0 | 0.0 | 0.00 | 0.00 | 0.00 | 85 | 1014.9 |
| 20260904080047 | 78 | 0 | 0.0 | 0.0 | 0.00 | 0.00 | 0.00 | 85 | 1014.7 |
| 20260904074556 | 79 | 0 | 0.0 | 0.0 | 0.00 | 0.00 | 0.00 | 85 | 1014.6 |
| 20260904073059 | 79 | 0 | 0.0 | 0.0 | 0.00 | 0.00 | 0.00 | 84 | 1014.5 |
| 20260904071611 | 79 | 0 | 0.0 | 0.0 | 0.00 | 0.00 | 0.00 | 84 | 1014.7 |
| 20260904070116 | 79 | 0 | 0.0 | 0.0 | 0.00 | 0.00 | 0.00 | 84 | 1014.6 |
| 20260904064555 | 79 | 0 | 0.0 | 0.0 | 0.00 | 0.00 | 0.00 | 83 | 1014.7 |
| 20260904063101 | 80 | 0 | 0.0 | 0.0 | 0.00 | 0.00 | 0.00 | 82 | 1014.8 |
| 20260904061549 | 80 | 0 | 0.0 | 0.0 | 0.00 | 0.00 | 0.00 | 81 | 1014.8 |
| 20260904060057 | 80 | 0 | 0.0 | 0.0 | 0.00 | 0.00 | 0.00 | 81 | 1014.9 |
| 20260904054551 | 80 | 0 | 0.0 | 0.0 | 0.00 | 0.00 | 0.00 | 81 | 1014.7 |
| 20260904053104 | 81 | 0 | 0.0 | 0.0 | 0.00 | 0.00 | 0.00 | 81 | 1014.9 |
| 20260904051550 | 81 | 0 | 0.0 | 0.0 | 0.00 | 0.00 | 0.00 | 80 | 1014.7 |
| 20260904050047 | 81 | 0 | 0.0 | 0.0 | 0.00 | 0.00 | 0.00 | 80 | 1014.9 |
| 20260904044553 | 81 | 0 | 0.0 | 0.0 | 0.00 | 0.00 | 0.00 | 79 | 1014.6 |
| 20260904043058 | 81 | 0 | 0.0 | 0.0 | 0.00 | 0.00 | 0.00 | 80 | 1014.8 |
| 20260904041554 | 81 | 0 | 0.0 | 0.0 | 0.00 | 0.00 | 0.00 | 80 | 1015.0 |
| 20260904040103 | 81 | 0 | 0.0 | 0.0 | 0.00 | 0.00 | 0.00 | 81 | 1014.9 |
| 20260904034549 | 82 | 0 | 0.0 | 0.0 | 0.00 | 0.00 | 0.00 | 81 | 1014.9 |
| 20260904033057 | 82 | 0 | 0.0 | 0.0 | 0.00 | 0.00 | 0.00 | 80 | 1014.9 |
| 20260904031557 | 82 | 0 | 0.0 | 0.0 | 0.00 | 0.00 | 0.00 | 82 | 1015.2 |
| 20260904030050 | 81 | 0 | 0.0 | 0.0 | 0.00 | 0.00 | 0.00 | 81 | 1015.2 |
| 20260904024559 | 81 | 0 | 0.0 | 0.0 | 0.00 | 0.00 | 0.00 | 81 | 1015.0 |
| 20260904023054 | 82 | 0 | 0.0 | 0.0 | 0.00 | 0.00 | 0.00 | 81 | 1014.9 |
| 20260904021548 | 82 | 0 | 0.0 | 0.0 | 0.00 | 0.00 | 0.00 | 82 | 1014.6 |
| 20260904020049 | 82 | 0 | 0.0 | 0.0 | 0.00 | 0.00 | 0.00 | 81 | 1014.6 |
| 20260904014557 | 82 | 0 | 0.0 | 0.0 | 0.00 | 0.00 | 0.00 | 82 | 1014.5 |
| 20260904013048 | 82 | 0 | 0.0 | 0.0 | 0.00 | 0.00 | 0.00 | 84 | 1014.3 |
| 20260904011550 | 82 | 0 | 0.0 | 0.0 | 0.00 | 0.00 | 0.00 | 83 | 1014.1 |
| 20260904010057 | 82 | 0 | 0.0 | 0.0 | 0.00 | 0.00 | 0.00 | 85 | 1014.1 |
| 20260904004553 | 83 | 0 | 0.0 | 0.0 | 0.00 | 0.00 | 0.00 | 84 | 1014.0 |
| 20260904003051 | 84 | 0 | 0.0 | 0.0 | 0.00 | 0.00 | 0.00 | 85 | 1013.9 |
| 20260904001550 | 84 | 0 | 0.0 | 0.0 | 0.00 | 0.00 | 0.00 | 86 | 1014.0 |
| 20260904000108 | 84 | 0 | 0.0 | 0.0 | 0.00 | 0.00 | 0.00 | 87 | 1013.9 |
| 20260903234553 | 84 | 0 | 0.0 | 0.0 | 0.00 | 0.00 | 0.00 | 86 | 1013.9 |
| 20260903233049 | 84 | 0 | 0.0 | 0.0 | 0.00 | 0.00 | 0.00 | 86 | 1013.7 |
| 20260903231550 | 84 | 0 | 0.0 | 0.0 | 0.00 | 0.00 | 0.00 | 86 | 1013.8 |
| 20260903230100 | 84 | 0 | 0.0 | 0.0 | 0.00 | 0.00 | 0.00 | 83 | 1013.7 |
| 20260903224556 | 86 | 0 | 0.0 | 4.0 | 0.00 | 0.00 | 0.00 | 76 | 1013.5 |
| 20260903221548 | 98 | 0 | 1.0 | 5.0 | 0.00 | 0.00 | 0.00 | 47 | 1013.4 |
| 20260903220101 | 98 | 10 | 1.0 | 3.0 | 0.00 | 0.00 | 0.00 | 47 | 1013.3 |
| 20260903214609 | 98 | 309 | 1.0 | 4.0 | 0.00 | 0.00 | 0.00 | 47 | 1013.4 |
| 20260903213052 | 98 | 0 | 1.0 | 4.0 | 0.00 | 0.00 | 0.00 | 47 | 1013.5 |
| 20260903211608 | 99 | 306 | 0.0 | 4.0 | 0.00 | 0.00 | 0.00 | 46 | 1013.9 |
| 20260903210047 | 99 | 0 | 0.0 | 4.0 | 0.00 | 0.00 | 0.00 | 46 | 1013.9 |
| 20260903204559 | 100 | 308 | 1.0 | 4.0 | 0.00 | 0.00 | 0.00 | 44 | 1014.0 |
| 20260903203055 | 100 | 120 | 0.0 | 4.0 | 0.00 | 0.00 | 0.00 | 44 | 1014.2 |
| 20260903201557 | 100 | 308 | 1.0 | 5.0 | 0.00 | 0.00 | 0.00 | 43 | 1014.1 |
| 20260903200057 | 100 | 0 | 0.0 | 6.0 | 0.00 | 0.00 | 0.00 | 44 | 1014.5 |
| 20260903194558 | 100 | 0 | 2.0 | 4.0 | 0.00 | 0.00 | 0.00 | 45 | 1014.6 |
| 20260903193049 | 99 | 273 | 1.0 | 3.0 | 0.00 | 0.00 | 0.00 | 45 | 1015.0 |
| 20260903191548 | 99 | 119 | 1.0 | 6.0 | 0.00 | 0.00 | 0.00 | 45 | 1015.0 |
| 20260903190058 | 98 | 0 | 1.0 | 7.0 | 0.00 | 0.00 | 0.00 | 47 | 1015.4 |
| 20260903184550 | 98 | 0 | 0.0 | 3.0 | 0.00 | 0.00 | 0.00 | 47 | 1015.5 |
| 20260903183048 | 98 | 0 | 0.0 | 7.0 | 0.00 | 0.00 | 0.00 | 48 | 1015.7 |
| 20260903181547 | 98 | 0 | 1.0 | 4.0 | 0.00 | 0.00 | 0.00 | 46 | 1015.9 |
| 20260903180059 | 99 | 0 | 0.0 | 6.0 | 0.00 | 0.00 | 0.00 | 47 | 1016.0 |
| 20260903174554 | 99 | 273 | 1.0 | 4.0 | 0.00 | 0.00 | 0.00 | 47 | 1016.1 |
| 20260903173050 | 96 | 289 | 0.0 | 5.0 | 0.00 | 0.00 | 0.00 | 51 | 1016.2 |
| 20260903171546 | 97 | 294 | 0.0 | 3.0 | 0.00 | 0.00 | 0.00 | 50 | 1016.5 |
| 20260903170105 | 97 | 167 | 1.0 | 4.0 | 0.00 | 0.00 | 0.00 | 49 | 1016.9 |
| 20260903164559 | 96 | 0 | 0.0 | 3.0 | 0.00 | 0.00 | 0.00 | 51 | 1016.9 |
| 20260903163049 | 95 | 0 | 1.0 | 7.0 | 0.00 | 0.00 | 0.00 | 51 | 1017.0 |
| 20260903161548 | 95 | 201 | 0.0 | 5.0 | 0.00 | 0.00 | 0.00 | 53 | 1017.1 |
| 20260903160048 | 95 | 0 | 0.0 | 3.0 | 0.00 | 0.00 | 0.00 | 54 | 1017.1 |
| 20260903154559 | 95 | 352 | 1.0 | 3.0 | 0.00 | 0.00 | 0.00 | 55 | 1017.2 |
| 20260903153105 | 94 | 344 | 0.0 | 2.0 | 0.00 | 0.00 | 0.00 | 55 | 1017.3 |
| 20260903151547 | 93 | 27 | 0.0 | 3.0 | 0.00 | 0.00 | 0.00 | 57 | 1017.1 |
| 20260903150115 | 93 | 94 | 0.0 | 2.0 | 0.00 | 0.00 | 0.00 | 58 | 1017.1 |
| 20260903144553 | 91 | 148 | 0.0 | 2.0 | 0.00 | 0.00 | 0.00 | 60 | 1017.4 |
| 20260903143103 | 90 | 0 | 0.0 | 2.0 | 0.00 | 0.00 | 0.00 | 62 | 1017.4 |
| 20260903141558 | 90 | 0 | 0.0 | 2.0 | 0.00 | 0.00 | 0.00 | 63 | 1017.5 |
| 20260903140059 | 89 | 352 | 0.0 | 1.0 | 0.00 | 0.00 | 0.00 | 65 | 1017.3 |
| 20260903134556 | 88 | 0 | 0.0 | 0.0 | 0.00 | 0.00 | 0.00 | 66 | 1017.5 |
| 20260903133052 | 86 | 0 | 0.0 | 0.0 | 0.00 | 0.00 | 0.00 | 70 | 1017.3 |
| 20260903131559 | 84 | 0 | 0.0 | 0.0 | 0.00 | 0.00 | 0.00 | 73 | 1017.3 |
| 20260903130058 | 82 | 0 | 0.0 | 0.0 | 0.00 | 0.00 | 0.00 | 76 | 1017.3 |